sensor_id;sensor_type;location;lat;lon;timestamp;temperature;humidity
30250;DHT22;17064;47.974;13.826;2023-04-25T00:01:47;5.50;99.90
30250;DHT22;17064;47.974;13.826;2023-04-25T00:06:48;5.30;99.90
30250;DHT22;17064;47.974;13.826;2023-04-25T00:11:48;5.20;99.90
30250;DHT22;17064;47.974;13.826;2023-04-25T00:16:49;5.20;99.90
30250;DHT22;17064;47.974;13.826;2023-04-25T00:21:52;5.20;99.90
30250;DHT22;17064;47.974;13.826;2023-04-25T00:26:53;5.20;99.90
30250;DHT22;17064;47.974;13.826;2023-04-25T00:31:54;5.20;99.90
30250;DHT22;17064;47.974;13.826;2023-04-25T00:36:55;5.20;99.90
30250;DHT22;17064;47.974;13.826;2023-04-25T00:41:55;5.20;99.90
30250;DHT22;17064;47.974;13.826;2023-04-25T00:46:57;5.20;99.90
30250;DHT22;17064;47.974;13.826;2023-04-25T00:51:58;5.20;99.90
30250;DHT22;17064;47.974;13.826;2023-04-25T00:56:59;5.30;99.90
30250;DHT22;17064;47.974;13.826;2023-04-25T01:02:01;5.30;99.90
30250;DHT22;17064;47.974;13.826;2023-04-25T01:07:02;5.30;99.90
30250;DHT22;17064;47.974;13.826;2023-04-25T01:12:03;5.30;99.90
30250;DHT22;17064;47.974;13.826;2023-04-25T01:17:04;5.30;99.90
30250;DHT22;17064;47.974;13.826;2023-04-25T01:22:05;5.40;99.90
30250;DHT22;17064;47.974;13.826;2023-04-25T01:27:06;5.40;99.90
30250;DHT22;17064;47.974;13.826;2023-04-25T01:32:07;5.50;99.90
30250;DHT22;17064;47.974;13.826;2023-04-25T01:37:08;5.50;99.90
30250;DHT22;17064;47.974;13.826;2023-04-25T01:42:09;5.50;99.90
30250;DHT22;17064;47.974;13.826;2023-04-25T01:47:10;5.50;99.90
30250;DHT22;17064;47.974;13.826;2023-04-25T01:52:11;5.50;99.90
30250;DHT22;17064;47.974;13.826;2023-04-25T01:57:12;5.50;99.90
30250;DHT22;17064;47.974;13.826;2023-04-25T02:02:13;5.40;99.90
30250;DHT22;17064;47.974;13.826;2023-04-25T02:07:13;5.40;99.90
30250;DHT22;17064;47.974;13.826;2023-04-25T02:12:16;5.20;99.90
30250;DHT22;17064;47.974;13.826;2023-04-25T02:17:16;5.10;99.90
30250;DHT22;17064;47.974;13.826;2023-04-25T02:22:18;5.10;99.90
30250;DHT22;17064;47.974;13.826;2023-04-25T02:27:18;5.10;99.90
30250;DHT22;17064;47.974;13.826;2023-04-25T02:32:21;5.00;99.90
30250;DHT22;17064;47.974;13.826;2023-04-25T02:37:21;5.00;99.90
30250;DHT22;17064;47.974;13.826;2023-04-25T02:42:22;5.10;99.90
30250;DHT22;17064;47.974;13.826;2023-04-25T02:47:23;5.10;99.90
30250;DHT22;17064;47.974;13.826;2023-04-25T02:52:23;5.20;99.90
30250;DHT22;17064;47.974;13.826;2023-04-25T02:57:25;5.20;99.90
30250;DHT22;17064;47.974;13.826;2023-04-25T03:02:25;5.30;99.90
30250;DHT22;17064;47.974;13.826;2023-04-25T03:07:26;5.40;99.90
30250;DHT22;17064;47.974;13.826;2023-04-25T03:12:27;5.50;99.90
30250;DHT22;17064;47.974;13.826;2023-04-25T03:17:28;5.50;99.90
30250;DHT22;17064;47.974;13.826;2023-04-25T03:22:28;5.60;99.90
30250;DHT22;17064;47.974;13.826;2023-04-25T03:27:29;5.60;99.90
30250;DHT22;17064;47.974;13.826;2023-04-25T03:32:30;5.70;99.90
30250;DHT22;17064;47.974;13.826;2023-04-25T03:37:30;5.60;99.90
30250;DHT22;17064;47.974;13.826;2023-04-25T03:42:31;5.60;99.90
30250;DHT22;17064;47.974;13.826;2023-04-25T03:47:32;5.60;99.90
30250;DHT22;17064;47.974;13.826;2023-04-25T03:52:34;5.60;99.90
30250;DHT22;17064;47.974;13.826;2023-04-25T03:57:35;5.70;99.90
30250;DHT22;17064;47.974;13.826;2023-04-25T04:02:35;5.70;99.90
30250;DHT22;17064;47.974;13.826;2023-04-25T04:07:37;5.70;99.90
30250;DHT22;17064;47.974;13.826;2023-04-25T04:12:40;5.70;99.90
30250;DHT22;17064;47.974;13.826;2023-04-25T04:17:41;5.70;99.90
30250;DHT22;17064;47.974;13.826;2023-04-25T04:22:41;5.70;99.90
30250;DHT22;17064;47.974;13.826;2023-04-25T04:27:42;5.60;99.90
30250;DHT22;17064;47.974;13.826;2023-04-25T04:32:46;5.60;99.90
30250;DHT22;17064;47.974;13.826;2023-04-25T04:37:48;5.70;99.90
30250;DHT22;17064;47.974;13.826;2023-04-25T04:42:48;5.70;99.90
30250;DHT22;17064;47.974;13.826;2023-04-25T04:47:50;5.70;99.90
30250;DHT22;17064;47.974;13.826;2023-04-25T04:52:50;5.70;99.90
30250;DHT22;17064;47.974;13.826;2023-04-25T04:57:51;5.70;99.90
30250;DHT22;17064;47.974;13.826;2023-04-25T05:02:52;5.70;99.90
30250;DHT22;17064;47.974;13.826;2023-04-25T05:07:52;5.80;99.90
30250;DHT22;17064;47.974;13.826;2023-04-25T05:12:53;6.00;99.90
30250;DHT22;17064;47.974;13.826;2023-04-25T05:17:54;6.20;99.90
30250;DHT22;17064;47.974;13.826;2023-04-25T05:22:56;6.40;99.90
30250;DHT22;17064;47.974;13.826;2023-04-25T05:27:57;6.60;99.90
30250;DHT22;17064;47.974;13.826;2023-04-25T05:32:58;6.90;99.90
30250;DHT22;17064;47.974;13.826;2023-04-25T05:37:59;7.30;99.90
30250;DHT22;17064;47.974;13.826;2023-04-25T05:43:00;7.80;99.90
30250;DHT22;17064;47.974;13.826;2023-04-25T05:48:00;8.10;99.90
30250;DHT22;17064;47.974;13.826;2023-04-25T05:53:01;8.20;99.90
30250;DHT22;17064;47.974;13.826;2023-04-25T05:58:02;8.30;99.90
30250;DHT22;17064;47.974;13.826;2023-04-25T06:03:03;8.30;99.90
30250;DHT22;17064;47.974;13.826;2023-04-25T06:08:04;8.30;99.90
30250;DHT22;17064;47.974;13.826;2023-04-25T06:13:05;8.40;99.90
30250;DHT22;17064;47.974;13.826;2023-04-25T06:18:07;8.60;99.90
30250;DHT22;17064;47.974;13.826;2023-04-25T06:23:07;9.00;99.90
30250;DHT22;17064;47.974;13.826;2023-04-25T06:28:09;9.20;99.90
30250;DHT22;17064;47.974;13.826;2023-04-25T06:33:10;9.40;99.90
30250;DHT22;17064;47.974;13.826;2023-04-25T06:38:11;9.30;99.90
30250;DHT22;17064;47.974;13.826;2023-04-25T06:43:11;9.20;99.90
30250;DHT22;17064;47.974;13.826;2023-04-25T06:48:18;9.20;99.90
30250;DHT22;17064;47.974;13.826;2023-04-25T06:53:19;9.10;99.90
30250;DHT22;17064;47.974;13.826;2023-04-25T06:58:20;9.10;99.90
30250;DHT22;17064;47.974;13.826;2023-04-25T07:03:21;9.10;99.90
30250;DHT22;17064;47.974;13.826;2023-04-25T07:08:21;9.20;99.90
30250;DHT22;17064;47.974;13.826;2023-04-25T07:13:22;9.20;99.90
30250;DHT22;17064;47.974;13.826;2023-04-25T07:18:23;9.40;99.90
30250;DHT22;17064;47.974;13.826;2023-04-25T07:23:23;9.90;99.90
30250;DHT22;17064;47.974;13.826;2023-04-25T07:28:25;9.90;99.90
30250;DHT22;17064;47.974;13.826;2023-04-25T07:33:27;10.10;99.90
30250;DHT22;17064;47.974;13.826;2023-04-25T07:38:28;10.40;99.90
30250;DHT22;17064;47.974;13.826;2023-04-25T07:43:28;10.40;99.90
30250;DHT22;17064;47.974;13.826;2023-04-25T07:48:29;10.80;99.90
30250;DHT22;17064;47.974;13.826;2023-04-25T07:53:30;11.10;99.90
30250;DHT22;17064;47.974;13.826;2023-04-25T07:58:30;11.30;99.90
30250;DHT22;17064;47.974;13.826;2023-04-25T08:03:31;11.50;99.90
30250;DHT22;17064;47.974;13.826;2023-04-25T08:08:32;11.60;99.90
30250;DHT22;17064;47.974;13.826;2023-04-25T08:13:32;11.80;99.90
30250;DHT22;17064;47.974;13.826;2023-04-25T08:18:33;11.80;99.90
30250;DHT22;17064;47.974;13.826;2023-04-25T08:23:34;11.50;99.90
30250;DHT22;17064;47.974;13.826;2023-04-25T08:28:35;11.40;99.90
30250;DHT22;17064;47.974;13.826;2023-04-25T08:33:36;11.20;99.90
30250;DHT22;17064;47.974;13.826;2023-04-25T08:38:37;11.20;99.90
30250;DHT22;17064;47.974;13.826;2023-04-25T08:43:38;11.10;99.90
30250;DHT22;17064;47.974;13.826;2023-04-25T08:48:43;10.90;99.90
30250;DHT22;17064;47.974;13.826;2023-04-25T08:53:45;10.80;99.90
30250;DHT22;17064;47.974;13.826;2023-04-25T08:58:48;10.90;99.90
30250;DHT22;17064;47.974;13.826;2023-04-25T09:03:50;11.10;99.90
30250;DHT22;17064;47.974;13.826;2023-04-25T09:08:52;11.00;99.90
30250;DHT22;17064;47.974;13.826;2023-04-25T09:14:17;11.30;99.90
30250;DHT22;17064;47.974;13.826;2023-04-25T09:19:26;12.00;99.90
30250;DHT22;17064;47.974;13.826;2023-04-25T09:24:37;12.70;99.90
30250;DHT22;17064;47.974;13.826;2023-04-25T09:29:39;13.20;95.10
30250;DHT22;17064;47.974;13.826;2023-04-25T09:34:42;13.50;93.20
30250;DHT22;17064;47.974;13.826;2023-04-25T09:39:45;13.40;89.60
30250;DHT22;17064;47.974;13.826;2023-04-25T09:44:47;12.60;92.60
30250;DHT22;17064;47.974;13.826;2023-04-25T09:49:48;11.00;99.30
30250;DHT22;17064;47.974;13.826;2023-04-25T09:54:49;9.50;99.90
30250;DHT22;17064;47.974;13.826;2023-04-25T09:59:54;8.70;99.90
30250;DHT22;17064;47.974;13.826;2023-04-25T10:04:55;8.20;99.90
30250;DHT22;17064;47.974;13.826;2023-04-25T10:10:01;8.00;99.90
30250;DHT22;17064;47.974;13.826;2023-04-25T10:15:04;8.00;99.90
30250;DHT22;17064;47.974;13.826;2023-04-25T10:20:06;8.10;99.90
30250;DHT22;17064;47.974;13.826;2023-04-25T10:25:11;8.30;99.90
30250;DHT22;17064;47.974;13.826;2023-04-25T10:30:15;8.40;99.90
30250;DHT22;17064;47.974;13.826;2023-04-25T10:40:27;8.50;99.90
30250;DHT22;17064;47.974;13.826;2023-04-25T10:45:27;8.60;99.90
30250;DHT22;17064;47.974;13.826;2023-04-25T10:50:37;9.30;99.90
30250;DHT22;17064;47.974;13.826;2023-04-25T10:55:49;9.30;99.90
30250;DHT22;17064;47.974;13.826;2023-04-25T11:00:51;9.30;99.90
30250;DHT22;17064;47.974;13.826;2023-04-25T11:05:52;9.60;99.90
30250;DHT22;17064;47.974;13.826;2023-04-25T11:10:53;9.70;99.90
30250;DHT22;17064;47.974;13.826;2023-04-25T11:15:55;9.80;99.90
30250;DHT22;17064;47.974;13.826;2023-04-25T11:20:55;9.80;99.90
30250;DHT22;17064;47.974;13.826;2023-04-25T11:25:57;10.20;99.90
30250;DHT22;17064;47.974;13.826;2023-04-25T11:30:58;10.80;99.90
30250;DHT22;17064;47.974;13.826;2023-04-25T11:35:59;11.60;99.90
30250;DHT22;17064;47.974;13.826;2023-04-25T11:41:00;12.60;99.90
30250;DHT22;17064;47.974;13.826;2023-04-25T11:46:00;12.70;99.90
30250;DHT22;17064;47.974;13.826;2023-04-25T11:51:01;13.10;99.90
30250;DHT22;17064;47.974;13.826;2023-04-25T11:56:09;13.90;99.90
30250;DHT22;17064;47.974;13.826;2023-04-25T12:01:10;14.30;97.80
30250;DHT22;17064;47.974;13.826;2023-04-25T12:06:16;14.50;99.90
30250;DHT22;17064;47.974;13.826;2023-04-25T12:11:21;14.60;98.00
30250;DHT22;17064;47.974;13.826;2023-04-25T12:16:22;15.10;98.20
30250;DHT22;17064;47.974;13.826;2023-04-25T12:21:22;15.40;94.90
30250;DHT22;17064;47.974;13.826;2023-04-25T12:26:23;15.30;88.90
30250;DHT22;17064;47.974;13.826;2023-04-25T12:31:25;14.90;93.90
30250;DHT22;17064;47.974;13.826;2023-04-25T12:36:26;15.10;91.10
30250;DHT22;17064;47.974;13.826;2023-04-25T12:41:27;14.90;89.60
30250;DHT22;17064;47.974;13.826;2023-04-25T12:46:27;14.70;86.50
30250;DHT22;17064;47.974;13.826;2023-04-25T12:51:28;14.80;84.80
30250;DHT22;17064;47.974;13.826;2023-04-25T12:56:29;14.40;87.20
30250;DHT22;17064;47.974;13.826;2023-04-25T13:01:30;14.00;85.60
30250;DHT22;17064;47.974;13.826;2023-04-25T13:06:31;12.80;90.20
30250;DHT22;17064;47.974;13.826;2023-04-25T13:11:32;11.90;93.60
30250;DHT22;17064;47.974;13.826;2023-04-25T13:16:33;11.40;96.70
30250;DHT22;17064;47.974;13.826;2023-04-25T13:21:33;11.20;98.20
30250;DHT22;17064;47.974;13.826;2023-04-25T13:26:34;11.20;99.90
30250;DHT22;17064;47.974;13.826;2023-04-25T13:31:35;11.70;98.70
30250;DHT22;17064;47.974;13.826;2023-04-25T13:36:36;12.00;98.50
30250;DHT22;17064;47.974;13.826;2023-04-25T13:41:36;12.00;97.00
30250;DHT22;17064;47.974;13.826;2023-04-25T13:46:37;12.30;97.20
30250;DHT22;17064;47.974;13.826;2023-04-25T13:51:38;12.60;95.40
30250;DHT22;17064;47.974;13.826;2023-04-25T13:56:39;12.80;95.00
30250;DHT22;17064;47.974;13.826;2023-04-25T14:01:42;12.80;95.00
30250;DHT22;17064;47.974;13.826;2023-04-25T14:06:43;13.10;95.00
30250;DHT22;17064;47.974;13.826;2023-04-25T14:11:43;13.20;94.40
30250;DHT22;17064;47.974;13.826;2023-04-25T14:16:45;12.90;94.20
30250;DHT22;17064;47.974;13.826;2023-04-25T14:21:46;12.50;95.10
30250;DHT22;17064;47.974;13.826;2023-04-25T14:26:47;12.20;96.20
30250;DHT22;17064;47.974;13.826;2023-04-25T14:31:48;11.90;96.40
30250;DHT22;17064;47.974;13.826;2023-04-25T14:36:49;11.50;97.20
30250;DHT22;17064;47.974;13.826;2023-04-25T14:41:53;11.20;97.40
30250;DHT22;17064;47.974;13.826;2023-04-25T14:46:53;10.70;96.90
30250;DHT22;17064;47.974;13.826;2023-04-25T14:51:54;10.20;99.40
30250;DHT22;17064;47.974;13.826;2023-04-25T14:56:55;9.80;99.90
30250;DHT22;17064;47.974;13.826;2023-04-25T15:01:55;9.20;99.90
30250;DHT22;17064;47.974;13.826;2023-04-25T15:06:57;8.90;99.90
30250;DHT22;17064;47.974;13.826;2023-04-25T15:11:58;8.70;99.90
30250;DHT22;17064;47.974;13.826;2023-04-25T15:16:59;8.50;99.90
30250;DHT22;17064;47.974;13.826;2023-04-25T15:22:00;8.50;99.90
30250;DHT22;17064;47.974;13.826;2023-04-25T15:27:01;8.50;99.90
30250;DHT22;17064;47.974;13.826;2023-04-25T15:32:03;8.40;99.90
30250;DHT22;17064;47.974;13.826;2023-04-25T15:37:04;8.30;99.90
30250;DHT22;17064;47.974;13.826;2023-04-25T15:42:04;8.40;99.90
30250;DHT22;17064;47.974;13.826;2023-04-25T15:47:05;8.40;99.90
30250;DHT22;17064;47.974;13.826;2023-04-25T15:52:06;8.50;99.90
30250;DHT22;17064;47.974;13.826;2023-04-25T15:57:07;8.50;99.90
30250;DHT22;17064;47.974;13.826;2023-04-25T16:02:13;8.50;99.90
30250;DHT22;17064;47.974;13.826;2023-04-25T16:07:13;8.50;99.90
30250;DHT22;17064;47.974;13.826;2023-04-25T16:12:14;8.50;99.90
30250;DHT22;17064;47.974;13.826;2023-04-25T16:17:15;8.70;99.90
30250;DHT22;17064;47.974;13.826;2023-04-25T16:22:17;8.70;99.90
30250;DHT22;17064;47.974;13.826;2023-04-25T16:27:17;8.60;99.90
30250;DHT22;17064;47.974;13.826;2023-04-25T16:32:18;8.60;99.90
30250;DHT22;17064;47.974;13.826;2023-04-25T16:37:19;8.50;99.90
30250;DHT22;17064;47.974;13.826;2023-04-25T16:42:19;8.50;99.90
30250;DHT22;17064;47.974;13.826;2023-04-25T16:47:20;8.60;99.90
30250;DHT22;17064;47.974;13.826;2023-04-25T16:52:21;8.50;99.90
30250;DHT22;17064;47.974;13.826;2023-04-25T16:57:23;8.40;99.90
30250;DHT22;17064;47.974;13.826;2023-04-25T17:02:23;8.10;99.90
30250;DHT22;17064;47.974;13.826;2023-04-25T17:07:24;7.90;99.90
30250;DHT22;17064;47.974;13.826;2023-04-25T17:12:25;7.70;99.90
30250;DHT22;17064;47.974;13.826;2023-04-25T17:17:26;7.70;99.90
30250;DHT22;17064;47.974;13.826;2023-04-25T17:22:27;7.60;99.90
30250;DHT22;17064;47.974;13.826;2023-04-25T17:27:30;7.60;99.90
30250;DHT22;17064;47.974;13.826;2023-04-25T17:32:31;7.50;99.90
30250;DHT22;17064;47.974;13.826;2023-04-25T17:37:32;7.50;99.90
30250;DHT22;17064;47.974;13.826;2023-04-25T17:42:34;7.40;99.90
30250;DHT22;17064;47.974;13.826;2023-04-25T17:47:35;7.40;99.90
30250;DHT22;17064;47.974;13.826;2023-04-25T17:52:36;7.40;99.90
30250;DHT22;17064;47.974;13.826;2023-04-25T17:57:38;7.30;99.90
30250;DHT22;17064;47.974;13.826;2023-04-25T18:02:39;7.30;99.90
30250;DHT22;17064;47.974;13.826;2023-04-25T18:07:40;7.20;99.90
30250;DHT22;17064;47.974;13.826;2023-04-25T18:12:41;7.20;99.90
30250;DHT22;17064;47.974;13.826;2023-04-25T18:17:42;7.10;99.90
30250;DHT22;17064;47.974;13.826;2023-04-25T18:22:44;7.10;99.90
30250;DHT22;17064;47.974;13.826;2023-04-25T18:27:45;7.00;99.90
30250;DHT22;17064;47.974;13.826;2023-04-25T18:32:47;7.00;99.90
30250;DHT22;17064;47.974;13.826;2023-04-25T18:37:48;6.90;99.90
30250;DHT22;17064;47.974;13.826;2023-04-25T18:42:51;6.90;99.90
30250;DHT22;17064;47.974;13.826;2023-04-25T18:47:52;6.90;99.90
30250;DHT22;17064;47.974;13.826;2023-04-25T18:52:54;6.80;99.90
30250;DHT22;17064;47.974;13.826;2023-04-25T18:57:55;6.80;99.90
30250;DHT22;17064;47.974;13.826;2023-04-25T19:02:55;6.70;99.90
30250;DHT22;17064;47.974;13.826;2023-04-25T19:08:02;6.70;99.90
30250;DHT22;17064;47.974;13.826;2023-04-25T19:13:03;6.70;99.90
30250;DHT22;17064;47.974;13.826;2023-04-25T19:18:04;6.70;99.90
30250;DHT22;17064;47.974;13.826;2023-04-25T19:23:08;6.80;99.90
30250;DHT22;17064;47.974;13.826;2023-04-25T19:28:10;6.80;99.90
30250;DHT22;17064;47.974;13.826;2023-04-25T19:33:12;6.80;99.90
30250;DHT22;17064;47.974;13.826;2023-04-25T19:38:13;6.60;99.90
30250;DHT22;17064;47.974;13.826;2023-04-25T19:43:14;6.60;99.90
30250;DHT22;17064;47.974;13.826;2023-04-25T19:48:15;6.30;99.90
30250;DHT22;17064;47.974;13.826;2023-04-25T19:53:16;6.10;99.90
30250;DHT22;17064;47.974;13.826;2023-04-25T19:58:18;5.90;99.90
30250;DHT22;17064;47.974;13.826;2023-04-25T20:03:20;5.80;99.90
30250;DHT22;17064;47.974;13.826;2023-04-25T20:08:21;5.80;99.90
30250;DHT22;17064;47.974;13.826;2023-04-25T20:13:22;5.80;99.90
30250;DHT22;17064;47.974;13.826;2023-04-25T20:18:23;5.80;99.90
30250;DHT22;17064;47.974;13.826;2023-04-25T20:23:23;5.80;99.90
30250;DHT22;17064;47.974;13.826;2023-04-25T20:28:25;5.80;99.90
30250;DHT22;17064;47.974;13.826;2023-04-25T20:33:26;5.80;99.90
30250;DHT22;17064;47.974;13.826;2023-04-25T20:38:27;5.70;99.90
30250;DHT22;17064;47.974;13.826;2023-04-25T20:43:28;5.70;99.90
30250;DHT22;17064;47.974;13.826;2023-04-25T20:48:29;5.70;99.90
30250;DHT22;17064;47.974;13.826;2023-04-25T20:53:30;5.70;99.90
30250;DHT22;17064;47.974;13.826;2023-04-25T20:58:31;5.70;99.90
30250;DHT22;17064;47.974;13.826;2023-04-25T21:03:33;5.60;99.90
30250;DHT22;17064;47.974;13.826;2023-04-25T21:08:34;5.60;99.90
30250;DHT22;17064;47.974;13.826;2023-04-25T21:13:35;5.60;99.90
30250;DHT22;17064;47.974;13.826;2023-04-25T21:18:36;5.60;99.90
30250;DHT22;17064;47.974;13.826;2023-04-25T21:23:36;5.60;99.90
30250;DHT22;17064;47.974;13.826;2023-04-25T21:28:37;5.50;99.90
30250;DHT22;17064;47.974;13.826;2023-04-25T21:33:38;5.50;99.90
30250;DHT22;17064;47.974;13.826;2023-04-25T21:38:38;5.60;99.90
30250;DHT22;17064;47.974;13.826;2023-04-25T21:43:39;5.60;99.90
30250;DHT22;17064;47.974;13.826;2023-04-25T21:48:40;5.60;99.90
30250;DHT22;17064;47.974;13.826;2023-04-25T21:53:41;5.70;99.90
30250;DHT22;17064;47.974;13.826;2023-04-25T21:58:41;5.60;99.90
30250;DHT22;17064;47.974;13.826;2023-04-25T22:03:42;5.60;99.90
30250;DHT22;17064;47.974;13.826;2023-04-25T22:08:43;5.60;99.90
30250;DHT22;17064;47.974;13.826;2023-04-25T22:13:43;5.60;99.90
30250;DHT22;17064;47.974;13.826;2023-04-25T22:18:44;5.60;99.90
30250;DHT22;17064;47.974;13.826;2023-04-25T22:23:46;5.60;99.90
30250;DHT22;17064;47.974;13.826;2023-04-25T22:28:46;5.60;99.90
30250;DHT22;17064;47.974;13.826;2023-04-25T22:33:47;5.50;99.90
30250;DHT22;17064;47.974;13.826;2023-04-25T22:38:48;5.40;99.90
30250;DHT22;17064;47.974;13.826;2023-04-25T22:43:48;5.40;99.90
30250;DHT22;17064;47.974;13.826;2023-04-25T22:48:49;5.40;99.90
30250;DHT22;17064;47.974;13.826;2023-04-25T22:53:50;5.40;99.90
30250;DHT22;17064;47.974;13.826;2023-04-25T22:58:51;5.40;99.90
30250;DHT22;17064;47.974;13.826;2023-04-25T23:03:51;5.40;99.90
30250;DHT22;17064;47.974;13.826;2023-04-25T23:08:53;5.40;99.90
30250;DHT22;17064;47.974;13.826;2023-04-25T23:13:53;5.30;99.90
30250;DHT22;17064;47.974;13.826;2023-04-25T23:18:54;5.30;99.90
30250;DHT22;17064;47.974;13.826;2023-04-25T23:23:55;5.30;99.90
30250;DHT22;17064;47.974;13.826;2023-04-25T23:28:55;5.20;99.90
30250;DHT22;17064;47.974;13.826;2023-04-25T23:33:56;5.20;99.90
30250;DHT22;17064;47.974;13.826;2023-04-25T23:38:57;5.20;99.90
30250;DHT22;17064;47.974;13.826;2023-04-25T23:43:59;5.20;99.90
30250;DHT22;17064;47.974;13.826;2023-04-25T23:49:00;5.20;99.90
30250;DHT22;17064;47.974;13.826;2023-04-25T23:54:03;5.20;99.90
30250;DHT22;17064;47.974;13.826;2023-04-25T23:59:04;5.20;99.90
